Latest Weather Observations for Kingaroy

IDQ60901

Issued at 9:11 pm EST Friday 12 July 2024 (issued every 10 minutes, with the page automatically refreshed every 10 minutes)

About weather observations | Map of Brisbane area stations | Latest observations for Brisbane area | Other Formats
Station Details ID: 040922 Name: KINGAROY AIRPORT Lat: -26.57 Lon: 151.84 Height: 433.67 m
Data from the previous 72 hours. | See also: Recent months at Kingaroy
Date/Time
EST
Temp
°C
App
Temp
°C
Dew
Point
°C
Rel
Hum
%
Delta-T
°C
Wind Press
QNH
hPa
Press
MSL
hPa
Rain since
9am
mm
Dir  Spd
km/h
Gust
km/h
Spd
kts
Gust
kts
12/09:00pm 8.3 6.5 7.2 93 0.5 SSE 6 6 3 3 1012.2 1012.0 0.0
12/08:30pm 8.6 7.9 7.1 90 0.7 CALM 0 0 0 0 1012.4 1012.2 0.0
12/08:00pm 9.4 7.5 6.7 83 1.3 S 6 7 3 4 1012.1 1011.9 0.0
12/07:42pm 10.1 8.2 6.8 80 1.6 SSE 6 7 3 4 1012.0 1011.8 0.0
12/07:30pm 10.3 8.3 7.2 81 1.5 SSE 7 9 4 5 1011.9 1011.7 0.0
12/07:22pm 10.4 8.4 7.1 80 1.6 SSE 7 9 4 5 1011.9 1011.7 0.0
12/07:00pm 11.1 8.7 7.2 77 1.9 E 9 9 5 5 1011.8 1011.6 0.0
12/06:30pm 12.1 11.4 6.8 70 2.6 CALM 0 0 0 0 1012.0 1011.8 0.0
12/06:00pm 14.4 12.9 6.7 60 3.8 SW 4 6 2 3 1012.0 1011.8 0.0
12/05:30pm 16.6 14.4 6.4 51 5.1 WSW 7 9 4 5 1011.9 1011.7 0.0
12/05:00pm 18.4 15.1 6.6 46 6.0 SW 13 17 7 9 1011.8 1011.6 0.0
12/04:30pm 19.0 14.3 6.2 43 6.5 WSW 20 30 11 16 1011.6 1011.4 0.0
12/04:00pm 20.8 16.7 6.0 38 7.6 WSW 17 24 9 13 1011.3 1011.1 0.0
12/03:30pm 21.0 16.6 5.0 35 8.0 WSW 17 22 9 12 1011.1 1010.9 0.0
12/03:00pm 21.2 16.1 4.3 33 8.4 WNW 20 28 11 15 1011.3 1011.1 0.0
12/02:30pm 21.4 16.6 5.7 36 8.0 W 20 30 11 16 1011.3 1011.1 0.0
12/02:00pm 21.1 16.9 5.5 36 7.9 W 17 28 9 15 1011.5 1011.3 0.0
12/01:30pm 21.0 16.6 7.6 42 7.1 WNW 20 26 11 14 1011.9 1011.7 0.0
12/01:00pm 20.4 16.1 7.1 42 6.9 W 19 26 10 14 1012.3 1012.1 0.0
12/12:30pm 20.2 15.8 7.2 43 6.8 WNW 20 33 11 18 1012.6 1012.4 0.0
12/12:00pm 19.9 16.0 7.0 43 6.7 W 17 26 9 14 1013.5 1013.4 0.0
12/11:30am 19.1 15.8 9.6 54 5.1 NW 17 30 9 16 1014.1 1013.9 0.0
12/11:00am 18.3 15.1 11.4 64 3.8 NW 19 26 10 14 1014.7 1014.5 0.0
12/10:30am 16.6 14.7 13.1 80 2.0 NW 15 20 8 11 1015.3 1015.1 0.0
12/10:08am 14.8 15.0 14.8 100 0.0 NNW 7 11 4 6 1015.6 1015.5 0.0
12/10:00am 13.3 13.0 13.3 100 0.0 NNW 7 9 4 5 1015.7 1015.6 0.0
12/09:59am 13.3 13.0 13.3 100 0.0 NNW 7 9 4 5 1015.8 1015.7 0.0
12/09:42am 12.1 11.4 12.1 100 0.0 NW 7 9 4 5 1015.9 1015.8 0.0
12/09:30am 11.6 12.1 11.6 100 0.0 CALM 0 6 0 3 1015.9 1015.8 0.0
12/09:00am 9.5 9.4 9.5 100 0.0 CALM 0 0 0 0 1016.0 1015.9 0.2
12/08:30am 8.1 7.7 8.1 100 0.0 CALM 0 0 0 0 1015.7 1015.6 0.2
12/08:00am 7.2 6.6 7.2 100 0.0 CALM 0 0 0 0 1015.9 1015.8 0.2
12/07:30am 6.2 5.3 6.2 100 0.0 CALM 0 0 0 0 1015.7 1015.6 0.2
12/07:22am 6.0 5.1 6.0 100 0.0 CALM 0 0 0 0 1015.7 1015.6 0.0
12/07:12am 5.8 4.8 5.8 100 0.0 CALM 0 0 0 0 1015.6 1015.5 0.0
12/07:00am 6.0 5.1 6.0 100 0.0 CALM 0 0 0 0 1015.4 1015.3 0.0
12/06:30am 6.4 5.6 6.4 100 0.0 CALM 0 0 0 0 1015.5 1015.4 0.0
12/06:00am 6.6 5.8 6.6 100 0.0 CALM 0 0 0 0 1015.1 1014.9 0.0
12/05:30am 6.4 5.6 6.4 100 0.0 CALM 0 0 0 0 1014.9 1014.7 0.0
12/05:00am 6.7 5.9 6.7 100 0.0 CALM 0 0 0 0 1015.1 1014.9 0.0
12/04:30am 6.8 6.1 6.8 100 0.0 CALM 0 0 0 0 1014.9 1014.7 0.0
12/04:00am 6.5 5.7 6.5 100 0.0 CALM 0 0 0 0 1014.8 1014.6 0.0
12/03:30am 6.7 5.6 6.7 100 0.0 SSE 2 7 1 4 1015.1 1014.9 0.0
12/03:00am 6.5 5.7 6.5 100 0.0 CALM 0 0 0 0 1015.3 1015.1 0.0
12/02:30am 6.8 6.1 6.8 100 0.0 CALM 0 0 0 0 1015.4 1015.3 0.0
12/02:00am 7.9 7.4 7.9 100 0.0 CALM 0 0 0 0 1016.2 1016.1 0.0
12/01:56am 8.1 7.7 8.1 100 0.0 CALM 0 6 0 3 1016.2 1016.1 0.0
12/01:52am 7.9 7.0 7.9 100 0.0 NNE 2 6 1 3 1016.5 1016.3 0.0
12/01:50am 7.7 6.4 7.7 100 0.0 NNE 4 6 2 3 1016.6 1016.4 0.0
12/01:30am 7.9 7.0 7.9 100 0.0 E 2 7 1 4 1016.5 1016.3 0.0
12/01:00am 8.6 8.3 8.6 100 0.0 CALM 0 0 0 0 1016.8 1016.6 0.0
12/12:30am 9.0 8.0 9.0 100 0.0 ESE 4 6 2 3 1016.7 1016.5 0.0
12/12:00am 8.9 8.7 8.9 100 0.0 CALM 0 0 0 0 1016.9 1016.7 0.0
 
Date/Time
EST
Temp
°C
App
Temp
°C
Dew
Point
°C
Rel
Hum
%
Delta-T
°C
Wind Press
QNH
hPa
Press
MSL
hPa
Rain since
9am
mm
Dir  Spd
km/h
Gust
km/h
Spd
kts
Gust
kts
11/11:30pm 9.3 9.2 9.3 100 0.0 CALM 0 0 0 0 1017.3 1017.1 0.0
11/11:00pm 9.7 9.6 9.6 99 0.1 CALM 0 0 0 0 1017.8 1017.7 0.0
11/10:30pm 10.8 11.0 10.6 99 0.1 CALM 0 0 0 0 1018.0 1017.9 0.0
11/10:00pm 11.5 10.6 11.3 99 0.1 SSW 7 9 4 5 1018.2 1018.1 0.0
11/09:30pm 11.0 11.3 10.8 99 0.1 CALM 0 0 0 0 1018.1 1018.0 0.0
11/09:00pm 12.0 12.6 11.8 99 0.1 CALM 0 0 0 0 1018.0 1017.9 0.0
11/08:30pm 12.3 11.6 11.5 95 0.4 ESE 6 7 3 4 1017.8 1017.7 0.0
11/08:00pm 13.0 12.3 12.1 94 0.5 E 7 11 4 6 1017.7 1017.6 0.0
11/07:30pm 13.6 12.3 11.1 85 1.4 E 9 13 5 7 1017.7 1017.6 0.0
11/07:00pm 14.7 13.5 11.5 81 1.7 E 9 15 5 8 1017.5 1017.4 0.0
11/06:30pm 15.5 15.7 11.7 78 2.1 E 2 7 1 4 1017.5 1017.4 0.0
11/06:00pm 16.0 15.4 11.6 75 2.4 SSW 6 9 3 5 1017.3 1017.1 0.0
11/05:30pm 17.1 16.8 11.4 69 3.2 E 4 7 2 4 1016.9 1016.7 0.0
11/05:00pm 18.6 17.6 10.9 61 4.3 ESE 7 13 4 7 1016.7 1016.5 0.0
11/04:30pm 19.4 17.6 10.7 57 4.8 ESE 11 17 6 9 1016.5 1016.3 0.0
11/04:00pm 20.5 18.5 10.3 52 5.6 E 11 15 6 8 1016.6 1016.4 0.0
11/03:30pm 20.9 19.9 8.9 46 6.5 SE 4 9 2 5 1016.7 1016.5 0.0
11/03:00pm 20.7 18.9 9.6 49 6.1 S 9 13 5 7 1016.9 1016.7 0.0
11/02:30pm 19.8 19.4 9.7 52 5.5 WNW 2 7 1 4 1017.2 1017.0 0.0
11/02:00pm 19.5 18.0 10.5 56 5.0 SSE 9 11 5 6 1017.5 1017.4 0.0
11/01:30pm 19.4 17.9 10.7 57 4.8 ESE 9 13 5 7 1017.8 1017.7 0.0
11/01:00pm 20.3 18.9 11.0 55 5.2 ESE 9 17 5 9 1018.1 1018.0 0.0
11/12:30pm 18.3 16.9 10.9 62 4.1 ENE 9 15 5 8 1018.6 1018.5 0.0
11/12:00pm 18.8 17.2 11.6 63 4.0 ESE 11 20 6 11 1019.3 1019.1 0.0
11/11:30am 19.2 17.4 12.2 64 4.0 ESE 13 19 7 10 1020.0 1019.9 0.0
11/11:00am 18.0 14.9 12.2 69 3.3 E 20 30 11 16 1020.5 1020.4 0.0
11/10:30am 17.8 15.9 11.8 68 3.4 ESE 13 19 7 10 1021.0 1020.9 0.0
11/10:00am 17.1 16.0 12.0 72 2.8 ESE 9 15 5 8 1021.4 1021.3 0.0
11/09:30am 15.6 15.8 11.8 78 2.1 NNW 2 7 1 4 1021.6 1021.5 0.0
11/09:00am 12.3 12.5 10.5 89 0.9 CALM 0 6 0 3 1021.7 1021.6 0.2
11/08:30am 9.3 9.1 9.2 99 0.1 CALM 0 0 0 0 1021.5 1021.4 0.2
11/08:00am 6.9 5.8 6.9 100 0.0 SSE 2 7 1 4 1021.3 1021.1 0.2
11/07:30am 4.5 3.3 4.5 100 0.0 CALM 0 0 0 0 1021.3 1021.1 0.2
11/07:00am 3.7 2.3 3.7 100 0.0 CALM 0 0 0 0 1020.8 1020.7 0.2
11/06:30am 3.8 2.4 3.8 100 0.0 CALM 0 0 0 0 1020.8 1020.7 0.2
11/06:00am 4.3 3.0 4.3 100 0.0 CALM 0 0 0 0 1020.6 1020.5 0.2
11/05:30am 4.3 3.0 4.3 100 0.0 CALM 0 0 0 0 1020.4 1020.3 0.2
11/05:00am 4.6 3.4 4.6 100 0.0 CALM 0 0 0 0 1020.4 1020.3 0.2
11/04:30am 5.0 3.9 4.9 99 0.0 CALM 0 0 0 0 1020.2 1020.1 0.2
11/04:00am 5.4 4.3 5.3 99 0.0 CALM 0 0 0 0 1020.2 1020.1 0.2
11/03:30am 5.9 4.9 5.8 99 0.0 CALM 0 0 0 0 1020.4 1020.3 0.2
11/03:00am 6.5 5.7 6.4 99 0.0 CALM 0 0 0 0 1020.4 1020.3 0.2
11/02:30am 7.1 6.2 6.0 93 0.5 CALM 0 0 0 0 1020.8 1020.7 0.2
11/02:00am 8.5 6.3 6.1 85 1.1 SSW 7 9 4 5 1021.4 1021.3 0.2
11/01:30am 8.8 5.9 6.3 84 1.2 S 11 13 6 7 1021.6 1021.5 0.2
11/01:00am 8.9 6.4 6.5 85 1.1 S 9 11 5 6 1021.8 1021.7 0.2
11/12:30am 8.4 5.9 6.5 88 0.9 SSW 9 11 5 6 1021.7 1021.6 0.2
11/12:00am 8.5 5.9 6.1 85 1.1 SSW 9 11 5 6 1021.9 1021.8 0.2
 
Date/Time
EST
Temp
°C
App
Temp
°C
Dew
Point
°C
Rel
Hum
%
Delta-T
°C
Wind Press
QNH
hPa
Press
MSL
hPa
Rain since
9am
mm
Dir  Spd
km/h
Gust
km/h
Spd
kts
Gust
kts
10/11:30pm 8.8 6.3 6.4 85 1.1 SSW 9 13 5 7 1022.1 1022.0 0.2
10/11:00pm 8.6 5.7 6.6 87 0.9 S 11 15 6 8 1022.4 1022.3 0.2
10/10:30pm 9.0 6.2 6.8 86 1.1 S 11 13 6 7 1022.6 1022.5 0.2
10/10:00pm 9.3 7.0 7.4 88 0.9 S 9 11 5 6 1022.6 1022.5 0.2
10/09:30pm 9.2 7.1 6.8 85 1.1 S 7 9 4 5 1022.6 1022.5 0.2
10/09:00pm 9.8 8.2 7.9 88 0.9 S 6 9 3 5 1022.7 1022.6 0.2
10/08:30pm 10.5 9.1 9.4 93 0.6 S 7 9 4 5 1022.5 1022.4 0.2
10/08:00pm 9.9 8.3 8.8 93 0.6 SSW 7 9 4 5 1022.4 1022.3 0.2
10/07:30pm 12.6 11.2 9.6 82 1.6 SSE 7 11 4 6 1022.0 1021.9 0.2
10/07:00pm 11.8 9.0 10.0 89 0.9 S 15 15 8 8 1021.9 1021.8 0.2
10/06:30pm 14.2 11.8 10.0 76 2.2 SSE 13 15 7 8 1021.6 1021.5 0.2
10/06:00pm 14.8 12.4 10.2 74 2.4 SSE 13 17 7 9 1021.3 1021.1 0.2
10/05:30pm 15.3 13.0 10.3 72 2.7 SSE 13 17 7 9 1021.0 1020.9 0.2
10/05:00pm 17.2 13.8 10.6 65 3.6 S 19 24 10 13 1020.7 1020.6 0.2
10/04:30pm 18.8 15.4 11.1 61 4.3 S 20 26 11 14 1020.3 1020.2 0.2
10/04:00pm 19.1 16.0 11.7 62 4.2 S 19 22 10 12 1020.2 1020.1 0.2
10/03:30pm 19.4 16.9 12.4 64 4.0 S 17 20 9 11 1020.0 1019.9 0.2
10/03:00pm 19.6 17.9 12.6 64 4.0 S 13 15 7 8 1019.9 1019.8 0.2
10/02:30pm 19.4 18.5 12.7 65 3.8 SSE 9 13 5 7 1019.9 1019.8 0.2
10/02:00pm 19.4 18.2 12.9 66 3.7 SSE 11 19 6 10 1020.0 1019.9 0.2
10/01:30pm 19.4 17.5 13.1 67 3.6 S 15 20 8 11 1020.1 1020.0 0.2
10/01:00pm 18.9 16.5 13.7 72 3.0 S 19 24 10 13 1020.6 1020.5 0.2
10/12:30pm 18.9 18.5 15.2 79 2.2 SW 11 13 6 7 1021.1 1021.0 0.2
10/12:00pm 19.1 18.9 13.5 70 3.2 SSW 7 13 4 7 1021.5 1021.4 0.0
10/11:30am 18.4 18.6 14.1 76 2.5 SW 6 11 3 6 1022.1 1022.0 0.0
10/11:00am 18.0 18.0 14.3 79 2.2 SSW 7 11 4 6 1022.3 1022.2 0.0
10/10:58am 18.1 18.4 14.4 79 2.2 SSW 6 11 3 6 1022.3 1022.2 0.0
10/10:30am 17.5 18.1 15.7 89 1.1 ESE 7 11 4 6 1022.7 1022.6 0.0
10/10:00am 15.4 15.4 15.2 99 0.1 SSE 9 13 5 7 1022.8 1022.7 0.0
10/09:30am 14.6 14.0 14.6 100 0.0 S 11 17 6 9 1022.9 1022.8 0.0
10/09:00am 13.8 12.5 13.8 100 0.0 SSE 13 15 7 8 1022.9 1022.8 8.2
10/08:56am 13.9 12.7 13.9 100 0.0 SSE 13 15 7 8 1022.9 1022.8 8.2
10/08:38am 13.9 13.1 13.9 100 0.0 S 11 15 6 8 1022.9 1022.8 8.2
10/08:36am 14.2 13.5 14.2 100 0.0 S 11 15 6 8 1022.9 1022.8 8.2
10/08:30am 14.1 13.3 14.1 100 0.0 S 11 13 6 7 1022.8 1022.7 8.2
10/08:23am 13.7 13.2 13.7 100 0.0 S 9 13 5 7 1022.8 1022.7 8.2
10/08:00am 13.6 13.0 13.6 100 0.0 SW 9 11 5 6 1022.6 1022.5 8.2
10/07:55am 13.5 13.8 13.5 100 0.0 SSW 4 9 2 5 1022.5 1022.4 8.2
10/07:35am 13.1 14.1 13.1 100 0.0 CALM 0 0 0 0 1022.2 1022.1 8.2
10/07:30am 13.0 13.9 13.0 100 0.0 CALM 0 0 0 0 1022.1 1022.0 8.2
10/07:18am 12.7 13.5 12.7 100 0.0 CALM 0 0 0 0 1021.9 1021.8 8.2
10/07:00am 12.8 13.7 12.8 100 0.0 CALM 0 0 0 0 1021.8 1021.7 8.2
10/06:46am 13.3 14.3 13.3 100 0.0 CALM 0 0 0 0 1021.7 1021.6 8.2
10/06:38am 13.4 14.5 13.4 100 0.0 CALM 0 0 0 0 1021.6 1021.5 8.2
10/06:30am 13.6 14.7 13.6 100 0.0 CALM 0 6 0 3 1021.5 1021.4 8.2
10/06:00am 13.9 15.1 13.9 100 0.0 CALM 0 0 0 0 1021.3 1021.1 8.2
10/05:51am 13.9 15.1 13.9 100 0.0 CALM 0 0 0 0 1021.1 1021.0 8.2
10/05:42am 14.0 15.3 14.0 100 0.0 CALM 0 0 0 0 1021.1 1021.0 8.2
10/05:30am 14.0 14.9 14.0 100 0.0 SSW 2 6 1 3 1021.1 1021.0 8.2
10/05:00am 14.1 13.7 14.1 100 0.0 SSW 9 13 5 7 1020.7 1020.6 8.2
10/04:43am 14.0 13.6 14.0 100 0.0 SSW 9 11 5 6 1020.7 1020.6 8.2
10/04:36am 14.0 13.9 14.0 100 0.0 S 7 9 4 5 1020.8 1020.7 8.2
10/04:30am 14.0 14.1 14.0 100 0.0 SSE 6 7 3 4 1020.9 1020.8 8.2
10/04:00am 13.9 13.8 13.9 100 0.0 S 7 9 4 5 1021.0 1020.9 8.2
10/03:30am 13.8 14.2 13.8 100 0.0 WSW 4 9 2 5 1021.4 1021.3 8.2
10/03:28am 13.7 14.1 13.7 100 0.0 WSW 4 9 2 5 1021.4 1021.3 8.2
10/03:02am 13.9 15.1 13.9 100 0.0 CALM 0 0 0 0 1021.5 1021.4 8.0
10/03:00am 13.8 15.0 13.8 100 0.0 CALM 0 0 0 0 1021.5 1021.4 8.0
10/02:59am 13.7 14.9 13.7 100 0.0 CALM 0 0 0 0 1021.6 1021.5 8.0
10/02:56am 13.6 14.7 13.6 100 0.0 CALM 0 0 0 0 1021.6 1021.5 8.0
10/02:51am 13.9 15.1 13.9 100 0.0 CALM 0 0 0 0 1021.7 1021.6 8.0
10/02:35am 14.2 15.5 14.2 100 0.0 CALM 0 0 0 0 1021.7 1021.6 8.0
10/02:30am 14.2 15.5 14.2 100 0.0 CALM 0 0 0 0 1021.7 1021.6 8.0
10/02:00am 14.5 15.9 14.5 100 0.0 CALM 0 0 0 0 1021.8 1021.7 8.0
10/01:51am 14.5 15.6 14.5 100 0.0 WSW 2 7 1 4 1021.9 1021.8 7.8
10/01:30am 14.6 16.1 14.6 100 0.0 CALM 0 0 0 0 1022.0 1021.9 7.8
10/01:16am 14.8 16.4 14.8 100 0.0 CALM 0 0 0 0 1022.1 1022.0 7.6
10/01:00am 14.8 15.6 14.8 100 0.0 NNW 4 9 2 5 1022.3 1022.2 6.4
10/12:56am 14.8 15.2 14.8 100 0.0 NW 6 9 3 5 1022.4 1022.3 5.6
10/12:54am 14.8 15.0 14.8 100 0.0 NW 7 9 4 5 1022.4 1022.3 5.2
10/12:30am 14.8 13.9 14.8 100 0.0 NW 13 15 7 8 1022.7 1022.6 2.2
10/12:00am 15.3 16.3 15.3 100 0.0 N 4 7 2 4 1022.7 1022.6 0.0
 
Date/Time
EST
Temp
°C
App
Temp
°C
Dew
Point
°C
Rel
Hum
%
Delta-T
°C
Wind Press
QNH
hPa
Press
MSL
hPa
Rain since
9am
mm
Dir  Spd
km/h
Gust
km/h
Spd
kts
Gust
kts
09/11:30pm 14.9 14.8 14.9 100 0.0 SSW 9 11 5 6 1022.5 1022.4 0.0
09/11:07pm 14.9 15.1 14.7 99 0.1 SW 7 7 4 4 1022.4 1022.3 0.0
09/11:00pm 15.0 16.2 14.8 99 0.1 SSE 2 7 1 4 1022.4 1022.3 0.0
09/10:34pm 15.6 16.2 15.4 99 0.1 ENE 6 9 3 5 1022.2 1022.1 0.0
09/10:30pm 15.6 16.2 15.4 99 0.1 E 6 9 3 5 1022.3 1022.2 0.0
09/10:00pm 15.9 17.7 15.4 97 0.3 CALM 0 7 0 4 1022.8 1022.7 0.0
09/09:38pm 15.7 17.0 15.1 96 0.4 ENE 2 7 1 4 1022.6 1022.5 0.0
09/09:30pm 15.7 16.1 14.7 94 0.6 E 6 9 3 5 1022.6 1022.5 0.0

Latest Capital City Observations: Canberra | Sydney | Melbourne | Brisbane | Adelaide | Perth | Hobart | Darwin

Other formats

Comma delimited format used in spreadsheet applications
http://www.bom.gov.au/fwo/IDQ60901/IDQ60901.94549.axf

JavaScript Object Notation format (JSON) in row-major order
http://www.bom.gov.au/fwo/IDQ60901/IDQ60901.94549.json

Data quality

Most of these data are generated automatically and are frequently updated. Quality checks on data are not normally performed. It is possible for incorrect values to appear. Refer to information at About Latest Weather Observations and please check the disclaimer before using these data.